Latest Coastal Weather Observations for Evans Head

IDN60701

Issued at 4:12 pm EST Thursday 25 August 2016 (issued every 10 minutes, with the page automatically refreshed every 10 minutes)

About coastal observations | Map of coastal stations | Coastal observations for NSW | Marine services | Other Formats
Station Details ID: 058212 Name: EVANS HEAD RAAF BOMBING RANGE AWS Lat: -29.18 Lon: 153.40 Height: 62.5 m
Data from the previous 72 hours. | See also: Recent months at Evans Head
Date/Time
EST
Temp
°C
Wind Pressure Rain since
9am
mm
Weather Cloud Vis
km
Sea
Height
m
Swell
Dir  Spd
kts
Gust
kts
hPa Trend Height
m
Period
s
Dir
25/04:00pm 19.5 WNW 5 8 1009.9 - 0.0 - - - - - - -
25/03:30pm 18.8 W 6 10 1009.7 - 0.0 - - - - - - -
25/03:00pm 19.4 SW 8 12 1009.3 - 0.0 - - - - - - -
25/02:30pm 19.3 WSW 9 15 1009.1 - 0.0 - - - - - - -
25/02:00pm 19.5 WSW 9 16 1008.9 - 0.0 - - - - - - -
25/01:30pm 19.0 WSW 10 16 1008.8 - 0.0 - - - - - - -
25/01:00pm 18.6 W 10 17 1009.0 - 0.0 - - - - - - -
25/12:30pm 19.0 WSW 9 21 1009.1 - 0.0 - - - - - - -
25/12:00pm 18.8 WNW 11 19 1009.4 - 0.0 - - - - - - -
25/11:30am 18.0 W 10 18 1009.7 - 0.0 - - - - - - -
25/11:00am 17.4 W 9 15 1009.9 - 0.0 - - - - - - -
25/10:30am 16.9 WSW 9 18 1010.1 - 0.0 - - - - - - -
25/10:00am 16.8 W 11 17 1010.1 - 0.0 - - - - - - -
25/09:30am 16.4 W 8 15 1010.1 - 0.0 - - - - - - -
25/09:00am 15.7 WNW 9 17 1009.8 - - - - - - - - -
25/08:30am 15.0 NW 8 13 1009.7 - - - - - - - - -
25/08:00am 14.3 NW 9 15 1009.4 - - - - - - - - -
25/07:30am 13.0 NW 9 13 1008.9 - - - - - - - - -
25/07:00am - - - - 1008.5 - - - - - - - - -
25/06:30am - - - - 1008.0 - - - - - - - - -
25/06:00am - - - - 1007.8 - - - - - - - - -
25/05:30am 11.4 N 6 8 1007.4 - 22.6 - - - - - - -
25/05:00am 12.2 NW 7 12 1006.5 - 22.6 - - - - - - -
25/04:30am 12.7 NW 7 11 1005.9 - 22.6 - - - - - - -
25/04:00am 12.7 NNW 6 8 1006.7 - 22.6 - - - - - - -
25/03:30am 13.3 NW 10 15 1005.7 - 22.6 - - - - - - -
25/03:00am 13.6 NW 9 14 1004.4 - 22.6 - - - - - - -
25/02:30am 13.9 WNW 7 9 1004.5 - 22.6 - - - - - - -
25/02:00am 14.1 NW 11 17 1005.4 - 22.6 - - - - - - -
25/01:30am 14.3 NW 10 15 1005.5 - 22.6 - - - - - - -
25/01:00am 14.1 NW 10 16 1005.6 - 22.6 - - - - - - -
25/12:30am 13.7 NNW 5 12 1006.1 - 22.6 - - - - - - -
25/12:00am 13.3 WNW 1 5 1005.7 - 22.6 - - - - - - -
 
Date/Time
EST
Temp
°C
Wind Pressure Rain since
9am
mm
Weather Cloud Vis
km
Sea
Height
m
Swell
Dir  Spd
kts
Gust
kts
hPa Trend Height
m
Period
s
Dir
24/11:30pm 13.3 NW 1 5 1004.3 - 22.6 - - - - - - -
24/11:00pm 13.3 NNW 4 5 1005.0 - 22.6 - - - - - - -
24/10:30pm 13.8 NNW 6 10 1005.4 - 22.6 - - - - - - -
24/10:00pm 13.6 NNW 6 10 1006.1 - 22.6 - - - - - - -
24/09:30pm 13.4 NNW 4 5 1006.3 - 22.6 - - - - - - -
24/09:00pm 13.7 NNW 5 6 1006.1 - 22.6 Recent precip. - - - - - -
24/08:30pm 14.3 NNW 4 6 1006.2 - 22.6 - - - - - - -
24/08:00pm 14.6 NW 3 4 1007.2 - 22.4 - - - - - - -
24/07:30pm 14.8 NW 6 9 1007.3 - 22.4 - - - - - - -
24/07:00pm 14.7 W 5 7 1007.4 - 22.4 - - - - - - -
24/06:30pm 14.7 WNW 2 7 1006.5 - 22.4 - - - - - - -
24/06:00pm 14.7 NW 6 9 1006.4 - 22.4 Recent precip. - - - - - -
24/05:30pm 14.8 NW 7 10 1006.8 - 22.2 - - - - - - -
24/05:00pm 14.8 WNW 2 5 1006.0 - 22.2 - - - - - - -
24/04:30pm 15.0 WNW 5 9 1006.9 - 22.0 - - - - - - -
24/04:00pm 15.2 NW 3 5 1006.2 - 21.8 - - - - - - -
24/03:30pm 15.0 SSE 7 12 1005.8 - 21.2 - - - - - - -
24/03:00pm 14.8 SSW 5 8 1005.8 - 21.0 Rain - - - - - -
24/02:30pm 14.8 SW 8 12 1007.5 - 20.4 - - - - - - -
24/02:00pm 14.8 SW 8 11 1007.6 - 18.8 - - - - - - -
24/01:30pm 15.0 SW 8 12 1007.6 - 16.4 - - - - - - -
24/01:00pm 15.0 SW 7 12 1007.6 - 14.0 - - - - - - -
24/12:30pm 15.3 SW 6 9 1007.5 - 10.8 - - - - - - -
24/12:00pm 15.4 SSW 8 11 1007.8 - 7.0 Rain - - - - - -
24/11:30am 15.7 SSE 13 18 1008.0 - 4.6 - - - - - - -
24/11:00am 16.2 SSE 15 21 1008.3 - 3.6 - - - - - - -
24/10:30am 16.4 SSE 15 27 1008.8 - 3.6 - - - - - - -
24/10:24am 16.2 SSE 15 27 1009.0 - 3.6 - - - - - - -
24/10:00am 15.6 SSE 13 19 1009.7 - 3.2 - - - - - - -
24/09:30am 16.0 SSE 15 22 1010.2 - 1.8 - - - - - - -
24/09:00am 15.9 SSE 14 21 1010.7 - 44.6 Rain - - - - - -
24/08:30am 15.7 SSE 16 23 1010.6 - 43.2 - - - - - - -
24/08:00am 15.9 SSE 15 23 1010.2 - 41.0 - - - - - - -
24/07:30am 15.7 SSE 18 25 1009.7 - 39.8 - - - - - - -
24/07:00am 15.7 SSE 18 25 1009.1 - 39.8 - - - - - - -
24/06:37am 15.8 SSE 18 28 1009.6 - 39.2 - - - - - - -
24/06:30am 15.6 SSE 20 28 1009.4 - 39.0 - - - - - - -
24/06:00am 15.7 SSE 18 27 1009.8 - 37.6 Rain - - - - - -
24/05:47am 15.9 SSE 16 26 1010.2 - 36.4 - - - - - - -
24/05:30am 15.7 SSE 15 23 1010.4 - 34.6 - - - - - - -
24/05:00am 15.8 SSE 13 18 1010.2 - 32.4 - - - - - - -
24/04:30am 15.7 SSE 15 21 1009.8 - 28.6 - - - - - - -
24/04:11am 15.8 SSE 17 27 1009.5 - 26.0 - - - - - - -
24/04:00am 15.6 SSE 19 27 1009.1 - 25.2 - - - - - - -
24/03:53am 15.8 SSE 16 27 1009.5 - 24.4 - - - - - - -
24/03:30am 16.1 SSE 16 22 1009.5 - 22.2 - - - - - - -
24/03:00am 15.9 S 15 25 1009.7 - 19.8 Rain - - - - - -
24/02:59am 15.9 S 15 25 1009.8 - 19.6 - - - - - - -
24/02:30am 15.9 SSE 13 18 1010.3 - 16.8 - - - - - - -
24/02:00am 16.1 SSE 16 22 1010.8 - 13.8 - - - - - - -
24/01:30am 16.6 SSE 16 24 1011.2 - 11.8 - - - - - - -
24/01:00am 17.0 S 13 23 1011.2 - 9.0 - - - - - - -
24/12:30am 17.1 W 3 5 1012.2 - 4.6 - - - - - - -
24/12:00am 17.3 SSE 8 13 1012.3 - 1.8 Rain - - - - - -
 
Date/Time
EST
Temp
°C
Wind Pressure Rain since
9am
mm
Weather Cloud Vis
km
Sea
Height
m
Swell
Dir  Spd
kts
Gust
kts
hPa Trend Height
m
Period
s
Dir
23/11:30pm 17.5 WNW 1 4 1012.7 - 1.4 - - - - - - -
23/11:00pm 17.5 W 4 5 1013.2 - 0.8 - - - - - - -
23/10:30pm 17.7 W 5 7 1013.3 - 0.4 - - - - - - -
23/10:00pm 18.0 WSW 3 5 1013.5 - 0.4 - - - - - - -
23/09:30pm 17.9 W 3 5 1013.4 - 0.2 - - - - - - -
23/09:00pm 17.9 W 5 7 1013.7 - 0.2 Recent precip. - - - - - -
23/08:30pm 18.0 N 6 8 1013.5 - 0.2 - - - - - - -
23/08:00pm 18.3 N 6 7 1013.3 - 0.0 - - - - - - -
23/07:30pm 18.8 NNE 6 8 1013.2 - 0.0 - - - - - - -
23/07:00pm 18.9 NNE 6 8 1013.3 - 0.0 - - - - - - -
23/06:30pm 18.7 N 5 7 1012.9 - 0.0 - - - - - - -
23/06:00pm 18.9 NNE 3 5 1012.8 - 0.0 - - - - - - -
23/05:30pm 19.2 N 5 7 1012.5 - 0.0 - - - - - - -
23/05:00pm 20.3 NE 3 4 1012.3 - 0.0 - - - - - - -
23/04:30pm 21.0 CALM 0 3 1011.8 - 0.0 - - - - - - -
23/04:00pm 22.5 NNW 1 4 1011.9 - 0.0 - - - - - - -
23/03:30pm 22.2 NNW 4 7 1011.7 - 0.0 - - - - - - -
23/03:00pm 22.1 NNW 4 5 1011.5 - 0.0 - - - - - - -
23/02:30pm 22.6 NNW 5 10 1011.3 - 0.0 - - - - - - -
23/02:00pm 23.1 NNW 7 10 1011.6 - 0.0 - - - - - - -
23/01:30pm 23.2 NNW 7 11 1011.4 - 0.0 - - - - - - -
23/01:00pm 23.0 NNW 6 10 1012.1 - 0.0 - - - - - - -
23/12:30pm 21.2 WSW 6 10 1012.7 - 0.0 - - - - - - -
23/12:00pm 21.4 NW 7 10 1013.2 - 0.0 - - - - - - -
23/11:30am 21.1 NW 7 13 1013.6 - 0.0 - - - - - - -
23/11:00am 22.9 NNW 8 13 1013.8 - 0.0 - - - - - - -
23/10:30am 22.1 NW 9 17 1013.7 - 0.0 - - - - - - -
23/10:00am 21.2 NW 8 14 1013.7 - 0.0 - - - - - - -
23/09:30am 20.9 NNW 8 12 1013.7 - 0.0 - - - - - - -
23/09:00am 20.8 NNW 11 17 1013.4 - 5.0 - - - - - - -
23/08:30am 19.6 NNW 7 13 1013.0 - 5.0 - - - - - - -
23/08:00am 18.3 NNW 9 13 1013.1 - 5.0 - - - - - - -
23/07:30am 16.8 NNW 7 10 1013.1 - 5.0 - - - - - - -
23/07:00am 16.4 NNW 6 10 1013.2 - 5.0 - - - - - - -
23/06:30am 14.6 NNW 6 8 1013.1 - 5.0 - - - - - - -
23/06:00am 14.5 NNW 7 9 1012.9 - 5.0 Recent precip. - - - - - -
23/05:30am 14.3 NNW 7 10 1012.8 - 5.0 - - - - - - -
23/05:00am 14.2 NNW 7 11 1012.5 - 4.8 - - - - - - -
23/04:30am 14.6 NNW 8 11 1012.5 - 4.8 - - - - - - -
23/04:00am 14.6 NNW 7 10 1012.4 - 4.8 - - - - - - -
23/03:30am 14.8 NNW 8 10 1012.5 - 4.8 - - - - - - -
23/03:00am 15.4 N 10 14 1012.7 - 4.8 - - - - - - -
23/02:30am 15.3 N 7 10 1013.0 - 4.8 - - - - - - -
23/02:00am 15.3 N 5 7 1013.5 - 4.8 - - - - - - -
23/01:30am 15.5 WSW 3 4 1014.1 - 4.6 - - - - - - -
23/01:00am 15.7 SW 5 7 1014.6 - 3.0 - - - - - - -
23/12:30am 16.2 WSW 5 6 1014.8 - 1.4 - - - - - - -
23/12:00am 17.1 WSW 4 5 1014.6 - 0.2 Rain - - - - - -
 
Date/Time
EST
Temp
°C
Wind Pressure Rain since
9am
mm
Weather Cloud Vis
km
Sea
Height
m
Swell
Dir  Spd
kts
Gust
kts
hPa Trend Height
m
Period
s
Dir
22/11:30pm 17.7 W 4 6 1014.5 - 0.0 - - - - - - -
22/11:00pm 17.6 NNW 4 6 1014.2 - 0.0 - - - - - - -
22/10:30pm 18.1 N 9 15 1014.2 - 0.0 - - - - - - -
22/10:00pm 18.3 N 11 17 1014.0 - 0.0 - - - - - - -
22/09:30pm 18.2 N 12 20 1013.9 - 0.0 - - - - - - -
22/09:00pm 18.1 N 10 17 1013.8 - 0.0 - - - - - - -
22/08:30pm 18.1 N 12 19 1013.5 - 0.0 - - - - - - -
22/08:00pm 18.2 N 12 16 1013.6 - 0.0 - - - - - - -
22/07:30pm 18.3 N 12 17 1013.7 - 0.0 - - - - - - -
22/07:00pm 18.1 N 12 18 1013.2 - 0.0 - - - - - - -
22/06:30pm 18.0 N 12 20 1013.2 - 0.0 - - - - - - -
22/06:00pm 18.1 N 12 17 1013.0 - 0.0 - - - - - - -
22/05:30pm 18.4 N 13 19 1013.1 - 0.0 - - - - - - -
22/05:00pm 19.1 NNE 11 16 1013.2 - 0.0 - - - - - - -
22/04:30pm 19.8 NNE 14 23 1013.0 - 0.0 - - - - - - -

Other Formats:

Comma delimited format used in spreadsheet applications
http://www.bom.gov.au/fwo/IDN60701/IDN60701.94598.axf

JavaScript Object Notation format (JSON) in row-major order
http://www.bom.gov.au/fwo/IDN60701/IDN60701.94598.json